sensor_id;sensor_type;location;lat;lon;timestamp;temperature;humidity
37658;DHT22;23500;53.268;8.308;2022-09-09T00:07:18;20.60;68.90
37658;DHT22;23500;53.268;8.308;2022-09-09T00:12:39;20.60;69.00
37658;DHT22;23500;53.268;8.308;2022-09-09T00:15:13;20.60;69.00
37658;DHT22;23500;53.268;8.308;2022-09-09T00:17:46;20.60;69.00
37658;DHT22;23500;53.268;8.308;2022-09-09T00:20:17;20.50;69.00
37658;DHT22;23500;53.268;8.308;2022-09-09T00:22:57;20.50;69.00
37658;DHT22;23500;53.268;8.308;2022-09-09T00:28:25;20.50;69.00
37658;DHT22;23500;53.268;8.308;2022-09-09T00:30:52;20.50;69.00
37658;DHT22;23500;53.268;8.308;2022-09-09T00:33:21;20.50;68.90
37658;DHT22;23500;53.268;8.308;2022-09-09T00:35:51;20.50;68.90
37658;DHT22;23500;53.268;8.308;2022-09-09T00:38:21;20.50;68.90
37658;DHT22;23500;53.268;8.308;2022-09-09T00:43:41;20.50;69.70
37658;DHT22;23500;53.268;8.308;2022-09-09T00:49:20;20.50;69.00
37658;DHT22;23500;53.268;8.308;2022-09-09T01:02:35;20.50;69.00
37658;DHT22;23500;53.268;8.308;2022-09-09T01:05:13;20.50;69.10
37658;DHT22;23500;53.268;8.308;2022-09-09T01:07:47;20.40;69.00
37658;DHT22;23500;53.268;8.308;2022-09-09T01:13:14;20.40;69.00
37658;DHT22;23500;53.268;8.308;2022-09-09T01:15:44;20.40;69.00
37658;DHT22;23500;53.268;8.308;2022-09-09T01:18:14;20.40;69.00
37658;DHT22;23500;53.268;8.308;2022-09-09T01:28:52;20.40;69.00
37658;DHT22;23500;53.268;8.308;2022-09-09T01:31:40;20.40;68.90
37658;DHT22;23500;53.268;8.308;2022-09-09T01:34:15;20.40;68.70
37658;DHT22;23500;53.268;8.308;2022-09-09T01:36:46;20.40;68.70
37658;DHT22;23500;53.268;8.308;2022-09-09T01:39:14;20.40;68.90
37658;DHT22;23500;53.268;8.308;2022-09-09T01:41:39;20.40;68.90
37658;DHT22;23500;53.268;8.308;2022-09-09T01:44:06;20.40;68.90
37658;DHT22;23500;53.268;8.308;2022-09-09T01:46:32;20.40;68.90
37658;DHT22;23500;53.268;8.308;2022-09-09T01:48:59;20.40;68.90
37658;DHT22;23500;53.268;8.308;2022-09-09T01:51:26;20.30;68.90
37658;DHT22;23500;53.268;8.308;2022-09-09T01:53:51;20.30;68.90
37658;DHT22;23500;53.268;8.308;2022-09-09T01:59:53;20.30;68.90
37658;DHT22;23500;53.268;8.308;2022-09-09T02:07:49;20.30;69.10
37658;DHT22;23500;53.268;8.308;2022-09-09T02:10:31;20.30;69.20
37658;DHT22;23500;53.268;8.308;2022-09-09T02:13:16;20.30;69.20
37658;DHT22;23500;53.268;8.308;2022-09-09T02:16:00;20.30;69.20
37658;DHT22;23500;53.268;8.308;2022-09-09T02:18:32;20.30;69.20
37658;DHT22;23500;53.268;8.308;2022-09-09T02:20:59;20.30;69.20
37658;DHT22;23500;53.268;8.308;2022-09-09T02:23:25;20.30;69.10
37658;DHT22;23500;53.268;8.308;2022-09-09T02:25:52;20.30;69.20
37658;DHT22;23500;53.268;8.308;2022-09-09T02:28:20;20.30;69.20
37658;DHT22;23500;53.268;8.308;2022-09-09T02:30:48;20.30;69.20
37658;DHT22;23500;53.268;8.308;2022-09-09T02:33:24;20.30;69.20
37658;DHT22;23500;53.268;8.308;2022-09-09T02:35:53;20.30;69.20
37658;DHT22;23500;53.268;8.308;2022-09-09T02:38:24;20.30;69.20
37658;DHT22;23500;53.268;8.308;2022-09-09T02:40:54;20.30;69.20
37658;DHT22;23500;53.268;8.308;2022-09-09T02:43:19;20.30;69.10
37658;DHT22;23500;53.268;8.308;2022-09-09T02:46:02;20.30;69.10
37658;DHT22;23500;53.268;8.308;2022-09-09T02:49:16;20.30;69.10
37658;DHT22;23500;53.268;8.308;2022-09-09T02:54:22;20.30;69.20
37658;DHT22;23500;53.268;8.308;2022-09-09T02:56:54;20.20;69.20
37658;DHT22;23500;53.268;8.308;2022-09-09T02:59:20;20.20;69.20
37658;DHT22;23500;53.268;8.308;2022-09-09T03:01:46;20.20;69.20
37658;DHT22;23500;53.268;8.308;2022-09-09T03:04:13;20.20;69.20
37658;DHT22;23500;53.268;8.308;2022-09-09T03:06:39;20.20;69.20
37658;DHT22;23500;53.268;8.308;2022-09-09T03:09:05;20.20;69.10
37658;DHT22;23500;53.268;8.308;2022-09-09T03:11:31;20.20;69.20
37658;DHT22;23500;53.268;8.308;2022-09-09T03:13:56;20.20;69.20
37658;DHT22;23500;53.268;8.308;2022-09-09T03:16:23;20.20;69.10
37658;DHT22;23500;53.268;8.308;2022-09-09T03:18:49;20.20;69.10
37658;DHT22;23500;53.268;8.308;2022-09-09T03:21:14;20.20;69.10
37658;DHT22;23500;53.268;8.308;2022-09-09T03:23:40;20.20;69.10
37658;DHT22;23500;53.268;8.308;2022-09-09T03:26:07;20.20;69.10
37658;DHT22;23500;53.268;8.308;2022-09-09T03:28:33;20.20;69.10
37658;DHT22;23500;53.268;8.308;2022-09-09T03:31:00;20.20;69.20
37658;DHT22;23500;53.268;8.308;2022-09-09T03:33:26;20.20;69.10
37658;DHT22;23500;53.268;8.308;2022-09-09T03:35:52;20.20;69.10
37658;DHT22;23500;53.268;8.308;2022-09-09T03:38:18;20.20;69.20
37658;DHT22;23500;53.268;8.308;2022-09-09T03:40:55;20.20;69.20
37658;DHT22;23500;53.268;8.308;2022-09-09T03:43:26;20.20;69.20
37658;DHT22;23500;53.268;8.308;2022-09-09T03:45:52;20.20;69.30
37658;DHT22;23500;53.268;8.308;2022-09-09T03:48:19;20.20;69.30
37658;DHT22;23500;53.268;8.308;2022-09-09T03:50:54;20.20;69.30
37658;DHT22;23500;53.268;8.308;2022-09-09T03:53:23;20.20;69.30
37658;DHT22;23500;53.268;8.308;2022-09-09T03:55:51;20.20;69.30
37658;DHT22;23500;53.268;8.308;2022-09-09T03:58:21;20.20;69.40
37658;DHT22;23500;53.268;8.308;2022-09-09T04:01:00;20.20;69.40
37658;DHT22;23500;53.268;8.308;2022-09-09T04:03:27;20.20;69.40
37658;DHT22;23500;53.268;8.308;2022-09-09T04:05:54;20.20;69.40
37658;DHT22;23500;53.268;8.308;2022-09-09T04:08:21;20.20;69.40
37658;DHT22;23500;53.268;8.308;2022-09-09T04:10:51;20.20;69.40
37658;DHT22;23500;53.268;8.308;2022-09-09T04:13:18;20.20;69.30
37658;DHT22;23500;53.268;8.308;2022-09-09T04:15:51;20.20;69.30
37658;DHT22;23500;53.268;8.308;2022-09-09T04:18:17;20.20;69.20
37658;DHT22;23500;53.268;8.308;2022-09-09T04:20:42;20.20;69.20
37658;DHT22;23500;53.268;8.308;2022-09-09T04:23:09;20.20;69.20
37658;DHT22;23500;53.268;8.308;2022-09-09T04:25:34;20.20;69.20
37658;DHT22;23500;53.268;8.308;2022-09-09T04:28:00;20.20;69.20
37658;DHT22;23500;53.268;8.308;2022-09-09T04:30:26;20.20;69.20
37658;DHT22;23500;53.268;8.308;2022-09-09T04:32:52;20.20;69.20
37658;DHT22;23500;53.268;8.308;2022-09-09T04:35:18;20.20;69.10
37658;DHT22;23500;53.268;8.308;2022-09-09T04:37:45;20.20;69.10
37658;DHT22;23500;53.268;8.308;2022-09-09T04:40:11;20.20;69.20
37658;DHT22;23500;53.268;8.308;2022-09-09T04:42:38;20.20;69.10
37658;DHT22;23500;53.268;8.308;2022-09-09T04:45:05;20.20;69.10
37658;DHT22;23500;53.268;8.308;2022-09-09T04:47:31;20.20;69.10
37658;DHT22;23500;53.268;8.308;2022-09-09T04:49:57;20.20;69.20
37658;DHT22;23500;53.268;8.308;2022-09-09T04:52:23;20.20;69.20
37658;DHT22;23500;53.268;8.308;2022-09-09T04:54:48;20.20;69.20
37658;DHT22;23500;53.268;8.308;2022-09-09T04:57:14;20.20;69.90
37658;DHT22;23500;53.268;8.308;2022-09-09T04:59:39;20.20;69.20
37658;DHT22;23500;53.268;8.308;2022-09-09T05:02:05;20.20;69.80
37658;DHT22;23500;53.268;8.308;2022-09-09T05:04:31;20.20;69.20
37658;DHT22;23500;53.268;8.308;2022-09-09T05:06:58;20.20;69.20
37658;DHT22;23500;53.268;8.308;2022-09-09T05:09:24;20.20;69.20
37658;DHT22;23500;53.268;8.308;2022-09-09T05:11:50;20.20;69.20
37658;DHT22;23500;53.268;8.308;2022-09-09T05:14:16;20.20;69.10
37658;DHT22;23500;53.268;8.308;2022-09-09T05:16:44;20.20;69.10
37658;DHT22;23500;53.268;8.308;2022-09-09T05:19:10;20.20;69.20
37658;DHT22;23500;53.268;8.308;2022-09-09T05:21:35;20.20;69.20
37658;DHT22;23500;53.268;8.308;2022-09-09T05:24:01;20.20;69.10
37658;DHT22;23500;53.268;8.308;2022-09-09T05:26:27;20.20;69.20
37658;DHT22;23500;53.268;8.308;2022-09-09T05:28:54;20.20;69.10
37658;DHT22;23500;53.268;8.308;2022-09-09T05:31:20;20.20;69.20
37658;DHT22;23500;53.268;8.308;2022-09-09T05:33:47;20.20;69.20
37658;DHT22;23500;53.268;8.308;2022-09-09T05:36:18;20.20;69.20
37658;DHT22;23500;53.268;8.308;2022-09-09T05:38:44;20.20;69.10
37658;DHT22;23500;53.268;8.308;2022-09-09T05:41:11;20.20;69.10
37658;DHT22;23500;53.268;8.308;2022-09-09T05:43:38;20.20;69.10
37658;DHT22;23500;53.268;8.308;2022-09-09T05:46:12;20.20;69.10
37658;DHT22;23500;53.268;8.308;2022-09-09T05:48:39;20.20;69.10
37658;DHT22;23500;53.268;8.308;2022-09-09T05:51:08;20.20;68.90
37658;DHT22;23500;53.268;8.308;2022-09-09T05:53:34;20.20;68.90
37658;DHT22;23500;53.268;8.308;2022-09-09T05:56:05;20.20;68.90
37658;DHT22;23500;53.268;8.308;2022-09-09T05:58:34;20.20;68.90
37658;DHT22;23500;53.268;8.308;2022-09-09T06:01:08;20.20;69.00
37658;DHT22;23500;53.268;8.308;2022-09-09T06:03:36;20.30;69.00
37658;DHT22;23500;53.268;8.308;2022-09-09T06:06:04;20.30;69.10
37658;DHT22;23500;53.268;8.308;2022-09-09T06:08:34;20.30;69.00
37658;DHT22;23500;53.268;8.308;2022-09-09T06:11:14;20.30;69.00
37658;DHT22;23500;53.268;8.308;2022-09-09T06:13:40;20.40;69.10
37658;DHT22;23500;53.268;8.308;2022-09-09T06:16:17;20.40;69.10
37658;DHT22;23500;53.268;8.308;2022-09-09T06:18:44;20.40;69.00
37658;DHT22;23500;53.268;8.308;2022-09-09T06:21:19;20.40;69.00
37658;DHT22;23500;53.268;8.308;2022-09-09T06:23:46;20.50;68.70
37658;DHT22;23500;53.268;8.308;2022-09-09T06:26:18;20.50;68.60
37658;DHT22;23500;53.268;8.308;2022-09-09T06:28:45;20.50;68.70
37658;DHT22;23500;53.268;8.308;2022-09-09T06:31:12;20.50;68.40
37658;DHT22;23500;53.268;8.308;2022-09-09T06:33:41;20.50;68.30
37658;DHT22;23500;53.268;8.308;2022-09-09T06:36:14;20.50;68.50
37658;DHT22;23500;53.268;8.308;2022-09-09T06:38:41;20.60;68.20
37658;DHT22;23500;53.268;8.308;2022-09-09T06:41:08;20.60;68.20
37658;DHT22;23500;53.268;8.308;2022-09-09T06:43:35;20.60;68.10
37658;DHT22;23500;53.268;8.308;2022-09-09T06:46:48;20.60;68.00
37658;DHT22;23500;53.268;8.308;2022-09-09T06:48:56;20.70;67.90
37658;DHT22;23500;53.268;8.308;2022-09-09T06:51:24;20.70;67.70
37658;DHT22;23500;53.268;8.308;2022-09-09T06:53:53;20.70;67.60
37658;DHT22;23500;53.268;8.308;2022-09-09T06:56:20;20.80;67.60
37658;DHT22;23500;53.268;8.308;2022-09-09T06:58:47;20.80;67.60
37658;DHT22;23500;53.268;8.308;2022-09-09T07:01:16;20.80;67.60
37658;DHT22;23500;53.268;8.308;2022-09-09T07:03:45;20.80;67.40
37658;DHT22;23500;53.268;8.308;2022-09-09T07:06:15;20.80;67.50
37658;DHT22;23500;53.268;8.308;2022-09-09T07:08:43;20.80;67.50
37658;DHT22;23500;53.268;8.308;2022-09-09T07:11:10;20.80;67.40
37658;DHT22;23500;53.268;8.308;2022-09-09T07:13:36;20.80;67.40
37658;DHT22;23500;53.268;8.308;2022-09-09T07:16:07;20.90;67.70
37658;DHT22;23500;53.268;8.308;2022-09-09T07:18:33;20.80;67.60
37658;DHT22;23500;53.268;8.308;2022-09-09T07:21:00;20.80;67.60
37658;DHT22;23500;53.268;8.308;2022-09-09T07:23:26;20.80;67.40
37658;DHT22;23500;53.268;8.308;2022-09-09T07:25:52;20.90;67.20
37658;DHT22;23500;53.268;8.308;2022-09-09T07:28:19;20.90;67.20
37658;DHT22;23500;53.268;8.308;2022-09-09T07:30:53;20.90;67.10
37658;DHT22;23500;53.268;8.308;2022-09-09T07:33:19;20.90;67.00
37658;DHT22;23500;53.268;8.308;2022-09-09T07:35:45;21.00;67.00
37658;DHT22;23500;53.268;8.308;2022-09-09T07:38:11;21.00;67.70
37658;DHT22;23500;53.268;8.308;2022-09-09T07:40:37;21.10;66.80
37658;DHT22;23500;53.268;8.308;2022-09-09T07:43:03;21.10;66.60
37658;DHT22;23500;53.268;8.308;2022-09-09T07:45:28;21.20;66.50
37658;DHT22;23500;53.268;8.308;2022-09-09T07:47:54;21.20;66.30
37658;DHT22;23500;53.268;8.308;2022-09-09T07:50:22;21.30;66.20
37658;DHT22;23500;53.268;8.308;2022-09-09T07:52:50;21.30;66.10
37658;DHT22;23500;53.268;8.308;2022-09-09T07:55:15;21.30;66.00
37658;DHT22;23500;53.268;8.308;2022-09-09T07:57:41;21.40;65.90
37658;DHT22;23500;53.268;8.308;2022-09-09T08:00:07;21.40;66.00
37658;DHT22;23500;53.268;8.308;2022-09-09T08:02:33;21.40;65.90
37658;DHT22;23500;53.268;8.308;2022-09-09T08:04:59;21.40;65.80
37658;DHT22;23500;53.268;8.308;2022-09-09T08:07:24;21.40;65.80
37658;DHT22;23500;53.268;8.308;2022-09-09T08:09:50;21.40;65.90
37658;DHT22;23500;53.268;8.308;2022-09-09T08:12:16;21.40;65.80
37658;DHT22;23500;53.268;8.308;2022-09-09T08:14:42;21.40;65.90
37658;DHT22;23500;53.268;8.308;2022-09-09T08:17:08;21.40;65.70
37658;DHT22;23500;53.268;8.308;2022-09-09T08:19:33;21.40;65.70
37658;DHT22;23500;53.268;8.308;2022-09-09T08:22:01;21.40;65.70
37658;DHT22;23500;53.268;8.308;2022-09-09T08:24:28;21.40;65.60
37658;DHT22;23500;53.268;8.308;2022-09-09T08:26:53;21.40;65.60
37658;DHT22;23500;53.268;8.308;2022-09-09T08:29:19;21.50;65.60
37658;DHT22;23500;53.268;8.308;2022-09-09T08:34:11;21.50;65.50
37658;DHT22;23500;53.268;8.308;2022-09-09T08:36:42;21.50;65.50
37658;DHT22;23500;53.268;8.308;2022-09-09T08:39:10;21.50;65.60
37658;DHT22;23500;53.268;8.308;2022-09-09T08:52:12;21.50;65.50
37658;DHT22;23500;53.268;8.308;2022-09-09T08:54:38;21.50;65.50
37658;DHT22;23500;53.268;8.308;2022-09-09T08:57:14;21.50;65.50
37658;DHT22;23500;53.268;8.308;2022-09-09T08:59:40;21.50;66.30
37658;DHT22;23500;53.268;8.308;2022-09-09T09:02:17;21.50;65.40
37658;DHT22;23500;53.268;8.308;2022-09-09T09:07:33;21.50;65.50
37658;DHT22;23500;53.268;8.308;2022-09-09T09:12:58;21.50;65.60
37658;DHT22;23500;53.268;8.308;2022-09-09T09:15:30;21.50;65.60
37658;DHT22;23500;53.268;8.308;2022-09-09T09:17:56;21.40;65.50
37658;DHT22;23500;53.268;8.308;2022-09-09T09:23:14;21.50;65.50
37658;DHT22;23500;53.268;8.308;2022-09-09T09:25:42;21.50;65.50
37658;DHT22;23500;53.268;8.308;2022-09-09T09:28:18;21.50;65.50
37658;DHT22;23500;53.268;8.308;2022-09-09T09:30:51;21.50;65.50
37658;DHT22;23500;53.268;8.308;2022-09-09T09:36:01;21.50;65.50
37658;DHT22;23500;53.268;8.308;2022-09-09T09:38:28;21.50;65.40
37658;DHT22;23500;53.268;8.308;2022-09-09T09:40:58;21.50;65.50
37658;DHT22;23500;53.268;8.308;2022-09-09T09:43:28;21.50;65.40
37658;DHT22;23500;53.268;8.308;2022-09-09T09:45:55;21.50;65.40
37658;DHT22;23500;53.268;8.308;2022-09-09T09:48:24;21.50;65.30
37658;DHT22;23500;53.268;8.308;2022-09-09T09:53:40;21.50;65.40
37658;DHT22;23500;53.268;8.308;2022-09-09T09:56:08;21.50;65.40
37658;DHT22;23500;53.268;8.308;2022-09-09T10:01:24;21.50;65.40
37658;DHT22;23500;53.268;8.308;2022-09-09T10:04:00;21.50;65.40
37658;DHT22;23500;53.268;8.308;2022-09-09T10:06:35;21.50;65.30
37658;DHT22;23500;53.268;8.308;2022-09-09T10:09:04;21.50;65.30
37658;DHT22;23500;53.268;8.308;2022-09-09T10:11:59;21.50;65.30
37658;DHT22;23500;53.268;8.308;2022-09-09T10:17:17;21.50;65.30
37658;DHT22;23500;53.268;8.308;2022-09-09T10:22:52;21.50;65.30
37658;DHT22;23500;53.268;8.308;2022-09-09T10:28:10;21.50;65.20
37658;DHT22;23500;53.268;8.308;2022-09-09T10:33:39;21.50;65.20
37658;DHT22;23500;53.268;8.308;2022-09-09T10:36:26;21.50;65.20
37658;DHT22;23500;53.268;8.308;2022-09-09T10:39:03;21.50;65.20
37658;DHT22;23500;53.268;8.308;2022-09-09T10:50:18;21.50;65.30
37658;DHT22;23500;53.268;8.308;2022-09-09T10:55:19;21.50;65.30
37658;DHT22;23500;53.268;8.308;2022-09-09T10:57:47;21.50;65.20
37658;DHT22;23500;53.268;8.308;2022-09-09T11:02:53;21.60;65.20
37658;DHT22;23500;53.268;8.308;2022-09-09T11:05:21;21.60;65.20
37658;DHT22;23500;53.268;8.308;2022-09-09T11:07:58;21.60;65.20
37658;DHT22;23500;53.268;8.308;2022-09-09T11:10:45;21.60;65.20
37658;DHT22;23500;53.268;8.308;2022-09-09T11:15:58;21.60;65.00
37658;DHT22;23500;53.268;8.308;2022-09-09T11:18:28;21.60;65.00
37658;DHT22;23500;53.268;8.308;2022-09-09T11:21:01;21.60;65.00
37658;DHT22;23500;53.268;8.308;2022-09-09T11:23:59;21.60;64.90
37658;DHT22;23500;53.268;8.308;2022-09-09T11:26:36;21.70;65.00
37658;DHT22;23500;53.268;8.308;2022-09-09T11:36:02;21.70;65.00
37658;DHT22;23500;53.268;8.308;2022-09-09T11:40:58;21.70;64.90
37658;DHT22;23500;53.268;8.308;2022-09-09T11:43:34;21.70;65.10
37658;DHT22;23500;53.268;8.308;2022-09-09T11:46:04;21.70;65.00
37658;DHT22;23500;53.268;8.308;2022-09-09T11:48:34;21.70;65.00
37658;DHT22;23500;53.268;8.308;2022-09-09T11:51:10;21.70;64.90
37658;DHT22;23500;53.268;8.308;2022-09-09T11:54:04;21.70;64.90
37658;DHT22;23500;53.268;8.308;2022-09-09T11:56:48;21.70;64.80
37658;DHT22;23500;53.268;8.308;2022-09-09T12:01:57;21.70;64.80
37658;DHT22;23500;53.268;8.308;2022-09-09T12:07:03;21.70;64.70
37658;DHT22;23500;53.268;8.308;2022-09-09T12:14:54;21.70;64.60
37658;DHT22;23500;53.268;8.308;2022-09-09T12:17:21;21.70;64.60
37658;DHT22;23500;53.268;8.308;2022-09-09T12:19:48;21.70;64.60
37658;DHT22;23500;53.268;8.308;2022-09-09T12:25:36;21.80;64.60
37658;DHT22;23500;53.268;8.308;2022-09-09T12:33:37;21.80;64.70
37658;DHT22;23500;53.268;8.308;2022-09-09T12:36:11;21.80;64.60
37658;DHT22;23500;53.268;8.308;2022-09-09T12:38:40;21.80;64.70
37658;DHT22;23500;53.268;8.308;2022-09-09T12:41:15;21.80;64.70
37658;DHT22;23500;53.268;8.308;2022-09-09T12:43:44;21.80;64.60
37658;DHT22;23500;53.268;8.308;2022-09-09T12:46:18;21.70;64.60
37658;DHT22;23500;53.268;8.308;2022-09-09T12:48:47;21.80;64.60
37658;DHT22;23500;53.268;8.308;2022-09-09T12:51:31;21.80;64.60
37658;DHT22;23500;53.268;8.308;2022-09-09T12:53:59;21.80;64.60
37658;DHT22;23500;53.268;8.308;2022-09-09T12:56:27;21.80;64.60
37658;DHT22;23500;53.268;8.308;2022-09-09T12:58:56;21.80;64.60
37658;DHT22;23500;53.268;8.308;2022-09-09T13:01:30;21.80;64.60
37658;DHT22;23500;53.268;8.308;2022-09-09T13:03:56;21.80;64.60
37658;DHT22;23500;53.268;8.308;2022-09-09T13:06:28;21.80;64.60
37658;DHT22;23500;53.268;8.308;2022-09-09T13:08:56;21.80;64.50
37658;DHT22;23500;53.268;8.308;2022-09-09T13:11:31;21.80;64.50
37658;DHT22;23500;53.268;8.308;2022-09-09T13:13:59;21.80;64.50
37658;DHT22;23500;53.268;8.308;2022-09-09T13:18:59;21.80;64.50
37658;DHT22;23500;53.268;8.308;2022-09-09T13:21:36;21.80;64.50
37658;DHT22;23500;53.268;8.308;2022-09-09T13:24:21;21.80;64.50
37658;DHT22;23500;53.268;8.308;2022-09-09T13:27:19;21.80;64.50
37658;DHT22;23500;53.268;8.308;2022-09-09T13:29:51;21.80;64.50
37658;DHT22;23500;53.268;8.308;2022-09-09T13:32:20;21.80;64.60
37658;DHT22;23500;53.268;8.308;2022-09-09T13:34:58;21.80;64.40
37658;DHT22;23500;53.268;8.308;2022-09-09T13:37:34;21.80;64.50
37658;DHT22;23500;53.268;8.308;2022-09-09T13:40:01;21.80;64.50
37658;DHT22;23500;53.268;8.308;2022-09-09T13:42:29;21.80;64.40
37658;DHT22;23500;53.268;8.308;2022-09-09T13:44:57;21.80;64.40
37658;DHT22;23500;53.268;8.308;2022-09-09T13:47:32;21.80;64.40
37658;DHT22;23500;53.268;8.308;2022-09-09T13:49:58;21.80;64.40
37658;DHT22;23500;53.268;8.308;2022-09-09T13:52:30;21.80;64.40
37658;DHT22;23500;53.268;8.308;2022-09-09T13:54:56;21.80;64.30
37658;DHT22;23500;53.268;8.308;2022-09-09T13:57:24;21.80;64.30
37658;DHT22;23500;53.268;8.308;2022-09-09T13:59:52;21.80;64.20
37658;DHT22;23500;53.268;8.308;2022-09-09T14:02:18;21.80;64.30
37658;DHT22;23500;53.268;8.308;2022-09-09T14:04:44;21.90;64.30
37658;DHT22;23500;53.268;8.308;2022-09-09T14:07:15;21.90;64.30
37658;DHT22;23500;53.268;8.308;2022-09-09T14:09:41;21.90;64.30
37658;DHT22;23500;53.268;8.308;2022-09-09T14:12:13;21.90;64.30
37658;DHT22;23500;53.268;8.308;2022-09-09T14:14:41;21.90;64.30
37658;DHT22;23500;53.268;8.308;2022-09-09T14:17:08;21.90;64.20
37658;DHT22;23500;53.268;8.308;2022-09-09T14:19:34;21.90;64.20
37658;DHT22;23500;53.268;8.308;2022-09-09T14:21:59;21.90;64.20
37658;DHT22;23500;53.268;8.308;2022-09-09T14:24:26;21.90;64.20
37658;DHT22;23500;53.268;8.308;2022-09-09T14:26:53;21.90;64.10
37658;DHT22;23500;53.268;8.308;2022-09-09T14:29:19;21.90;64.10
37658;DHT22;23500;53.268;8.308;2022-09-09T14:31:44;21.90;64.10
37658;DHT22;23500;53.268;8.308;2022-09-09T14:34:10;21.90;64.10
37658;DHT22;23500;53.268;8.308;2022-09-09T14:36:37;21.90;64.00
37658;DHT22;23500;53.268;8.308;2022-09-09T14:39:03;21.90;64.10
37658;DHT22;23500;53.268;8.308;2022-09-09T14:41:29;21.90;64.00
37658;DHT22;23500;53.268;8.308;2022-09-09T14:43:55;21.90;64.00
37658;DHT22;23500;53.268;8.308;2022-09-09T14:46:21;21.90;64.70
37658;DHT22;23500;53.268;8.308;2022-09-09T14:48:47;21.90;64.00
37658;DHT22;23500;53.268;8.308;2022-09-09T14:51:21;21.90;64.00
37658;DHT22;23500;53.268;8.308;2022-09-09T14:53:54;21.90;64.00
37658;DHT22;23500;53.268;8.308;2022-09-09T14:56:22;21.90;64.00
37658;DHT22;23500;53.268;8.308;2022-09-09T14:58:48;21.90;64.00
37658;DHT22;23500;53.268;8.308;2022-09-09T15:01:16;21.90;64.00
37658;DHT22;23500;53.268;8.308;2022-09-09T15:03:49;21.90;64.00
37658;DHT22;23500;53.268;8.308;2022-09-09T15:06:15;21.90;64.00
37658;DHT22;23500;53.268;8.308;2022-09-09T15:08:42;21.90;63.90
37658;DHT22;23500;53.268;8.308;2022-09-09T15:11:09;21.90;63.90
37658;DHT22;23500;53.268;8.308;2022-09-09T15:13:36;21.90;63.90
37658;DHT22;23500;53.268;8.308;2022-09-09T15:16:18;21.90;64.00
37658;DHT22;23500;53.268;8.308;2022-09-09T15:18:45;21.90;63.90
37658;DHT22;23500;53.268;8.308;2022-09-09T15:21:20;21.90;63.90
37658;DHT22;23500;53.268;8.308;2022-09-09T15:23:46;21.90;63.90
37658;DHT22;23500;53.268;8.308;2022-09-09T15:26:13;21.90;63.90
37658;DHT22;23500;53.268;8.308;2022-09-09T15:28:40;21.90;64.00
37658;DHT22;23500;53.268;8.308;2022-09-09T15:31:17;21.90;63.90
37658;DHT22;23500;53.268;8.308;2022-09-09T15:33:50;21.90;63.90
37658;DHT22;23500;53.268;8.308;2022-09-09T15:36:24;21.90;63.90
37658;DHT22;23500;53.268;8.308;2022-09-09T15:38:51;21.90;63.90
37658;DHT22;23500;53.268;8.308;2022-09-09T15:41:19;21.90;63.90
37658;DHT22;23500;53.268;8.308;2022-09-09T15:43:46;21.90;63.90
37658;DHT22;23500;53.268;8.308;2022-09-09T15:49:18;21.90;64.00
37658;DHT22;23500;53.268;8.308;2022-09-09T15:51:46;21.90;63.90
37658;DHT22;23500;53.268;8.308;2022-09-09T15:54:17;21.90;64.00
37658;DHT22;23500;53.268;8.308;2022-09-09T15:56:45;21.90;63.90
37658;DHT22;23500;53.268;8.308;2022-09-09T15:59:11;21.90;63.90
37658;DHT22;23500;53.268;8.308;2022-09-09T16:01:38;21.90;64.00
37658;DHT22;23500;53.268;8.308;2022-09-09T16:04:07;21.90;63.90
37658;DHT22;23500;53.268;8.308;2022-09-09T16:06:34;21.90;63.90
37658;DHT22;23500;53.268;8.308;2022-09-09T16:09:01;21.90;63.90
37658;DHT22;23500;53.268;8.308;2022-09-09T16:11:36;21.90;63.90
37658;DHT22;23500;53.268;8.308;2022-09-09T16:14:03;21.90;64.00
37658;DHT22;23500;53.268;8.308;2022-09-09T16:16:29;21.90;63.90
37658;DHT22;23500;53.268;8.308;2022-09-09T16:19:15;21.90;63.90
37658;DHT22;23500;53.268;8.308;2022-09-09T16:21:44;21.90;64.00
37658;DHT22;23500;53.268;8.308;2022-09-09T16:24:12;21.90;64.00
37658;DHT22;23500;53.268;8.308;2022-09-09T16:26:41;21.90;64.00
37658;DHT22;23500;53.268;8.308;2022-09-09T16:29:10;21.90;64.00
37658;DHT22;23500;53.268;8.308;2022-09-09T16:31:35;21.90;64.00
37658;DHT22;23500;53.268;8.308;2022-09-09T16:34:01;21.90;64.00
37658;DHT22;23500;53.268;8.308;2022-09-09T16:36:30;21.90;64.00
37658;DHT22;23500;53.268;8.308;2022-09-09T16:38:58;21.90;64.00
37658;DHT22;23500;53.268;8.308;2022-09-09T16:41:25;21.90;64.00
37658;DHT22;23500;53.268;8.308;2022-09-09T16:44:01;21.90;64.00
37658;DHT22;23500;53.268;8.308;2022-09-09T16:46:28;21.90;64.10
37658;DHT22;23500;53.268;8.308;2022-09-09T16:48:56;21.90;64.00
37658;DHT22;23500;53.268;8.308;2022-09-09T16:51:32;21.90;64.80
37658;DHT22;23500;53.268;8.308;2022-09-09T16:54:00;21.90;64.10
37658;DHT22;23500;53.268;8.308;2022-09-09T16:56:27;21.90;64.20
37658;DHT22;23500;53.268;8.308;2022-09-09T16:58:58;21.90;64.10
37658;DHT22;23500;53.268;8.308;2022-09-09T17:01:26;21.90;64.10
37658;DHT22;23500;53.268;8.308;2022-09-09T17:03:59;21.90;64.20
37658;DHT22;23500;53.268;8.308;2022-09-09T17:06:26;21.90;64.10
37658;DHT22;23500;53.268;8.308;2022-09-09T17:08:57;21.90;64.10
37658;DHT22;23500;53.268;8.308;2022-09-09T17:11:24;21.90;64.30
37658;DHT22;23500;53.268;8.308;2022-09-09T17:13:51;21.90;64.10
37658;DHT22;23500;53.268;8.308;2022-09-09T17:16:18;21.90;64.20
37658;DHT22;23500;53.268;8.308;2022-09-09T17:18:46;21.90;64.30
37658;DHT22;23500;53.268;8.308;2022-09-09T17:21:15;21.90;64.30
37658;DHT22;23500;53.268;8.308;2022-09-09T17:23:42;21.80;64.20
37658;DHT22;23500;53.268;8.308;2022-09-09T17:26:11;21.90;64.30
37658;DHT22;23500;53.268;8.308;2022-09-09T17:28:38;21.90;64.30
37658;DHT22;23500;53.268;8.308;2022-09-09T17:31:05;21.90;64.30
37658;DHT22;23500;53.268;8.308;2022-09-09T17:33:36;21.80;64.30
37658;DHT22;23500;53.268;8.308;2022-09-09T17:36:14;21.80;64.40
37658;DHT22;23500;53.268;8.308;2022-09-09T17:38:41;21.80;64.40
37658;DHT22;23500;53.268;8.308;2022-09-09T17:41:18;21.80;64.30
37658;DHT22;23500;53.268;8.308;2022-09-09T17:43:44;21.80;64.40
37658;DHT22;23500;53.268;8.308;2022-09-09T17:46:11;21.80;64.50
37658;DHT22;23500;53.268;8.308;2022-09-09T17:48:38;21.80;64.50
37658;DHT22;23500;53.268;8.308;2022-09-09T17:51:09;21.80;65.10
37658;DHT22;23500;53.268;8.308;2022-09-09T17:53:42;21.80;65.00
37658;DHT22;23500;53.268;8.308;2022-09-09T17:56:10;21.80;65.10
37658;DHT22;23500;53.268;8.308;2022-09-09T17:58:36;21.80;64.80
37658;DHT22;23500;53.268;8.308;2022-09-09T18:01:12;21.80;64.70
37658;DHT22;23500;53.268;8.308;2022-09-09T18:03:39;21.80;64.90
37658;DHT22;23500;53.268;8.308;2022-09-09T18:06:11;21.80;64.90
37658;DHT22;23500;53.268;8.308;2022-09-09T18:08:48;21.80;64.60